createdAt,value
2023-04-04T00:01:23.291Z,3.23
2023-04-04T00:03:49.781Z,3.09
2023-04-04T00:06:16.266Z,3.14
2023-04-04T00:08:42.572Z,3.18
2023-04-04T00:11:08.900Z,3.18
2023-04-04T00:13:35.195Z,3.08
2023-04-04T00:16:01.529Z,3.04
2023-04-04T00:18:27.857Z,3.01
2023-04-04T00:20:54.150Z,3.07
2023-04-04T00:23:20.469Z,3.13
2023-04-04T00:25:46.771Z,2.88
2023-04-04T00:28:13.067Z,2.81
2023-04-04T00:30:39.702Z,3.04
2023-04-04T00:33:06.475Z,3.07
2023-04-04T00:35:32.913Z,2.90
2023-04-04T00:37:59.251Z,3.07
2023-04-04T00:40:25.575Z,3.03
2023-04-04T00:42:51.869Z,2.94
2023-04-04T00:45:18.168Z,3.09
2023-04-04T00:47:44.572Z,2.94
2023-04-04T00:50:10.908Z,2.68
2023-04-04T00:52:40.200Z,2.98
2023-04-04T00:55:06.537Z,3.07
2023-04-04T00:57:32.821Z,2.95
2023-04-04T00:59:59.152Z,3.05
2023-04-04T01:02:25.532Z,3.01
2023-04-04T01:04:51.846Z,3.08
2023-04-04T01:07:18.215Z,2.81
2023-04-04T01:09:44.521Z,2.91
2023-04-04T01:12:10.818Z,2.95
2023-04-04T01:14:37.129Z,2.94
2023-04-04T01:17:03.543Z,2.74
2023-04-04T01:19:29.926Z,2.70
2023-04-04T01:21:56.236Z,2.66
2023-04-04T01:24:22.560Z,2.61
2023-04-04T01:26:48.859Z,2.75
2023-04-04T01:29:15.159Z,2.48
2023-04-04T01:31:41.495Z,2.56
2023-04-04T01:34:07.796Z,2.64
2023-04-04T01:36:34.099Z,2.74
2023-04-04T01:39:00.466Z,2.53
2023-04-04T01:41:26.748Z,2.93
2023-04-04T01:43:53.045Z,2.77
2023-04-04T01:46:19.428Z,3.27
2023-04-04T01:48:45.869Z,2.93
2023-04-04T01:51:12.157Z,3.26
2023-04-04T01:53:38.476Z,3.20
2023-04-04T01:56:04.768Z,3.40
2023-04-04T01:58:31.071Z,3.41
2023-04-04T02:00:57.419Z,3.04
2023-04-04T02:03:23.733Z,3.21
2023-04-04T02:05:50.051Z,3.37
2023-04-04T02:08:16.363Z,3.40
2023-04-04T02:10:42.814Z,3.46
2023-04-04T02:13:09.260Z,3.15
2023-04-04T02:15:35.642Z,3.31
2023-04-04T02:18:02.212Z,3.20
2023-04-04T02:20:28.627Z,3.39
2023-04-04T02:22:54.965Z,3.26
2023-04-04T02:25:21.272Z,3.56
2023-04-04T02:27:47.556Z,3.61
2023-04-04T02:30:13.884Z,3.53
2023-04-04T02:32:40.242Z,3.46
2023-04-04T02:35:06.543Z,3.36
2023-04-04T02:37:32.872Z,3.58
2023-04-04T02:39:59.170Z,3.27
2023-04-04T02:42:25.457Z,3.32
2023-04-04T02:44:51.811Z,3.58
2023-04-04T02:47:18.123Z,3.16
2023-04-04T02:49:44.422Z,3.33
2023-04-04T02:52:10.744Z,3.27
2023-04-04T02:54:37.060Z,3.48
2023-04-04T02:57:03.362Z,3.45
2023-04-04T02:59:29.735Z,3.43
2023-04-04T03:01:56.119Z,3.50
2023-04-04T03:04:22.467Z,3.62
2023-04-04T03:06:48.791Z,3.56
2023-04-04T03:09:15.086Z,3.43
2023-04-04T03:11:41.423Z,3.49
2023-04-04T03:14:07.747Z,3.95
2023-04-04T03:16:34.071Z,3.56
2023-04-04T03:19:00.407Z,3.44
2023-04-04T03:21:26.741Z,3.65
2023-04-04T03:23:53.038Z,3.56
2023-04-04T03:26:19.332Z,3.48
2023-04-04T03:28:45.638Z,3.73
2023-04-04T03:31:11.927Z,3.51
2023-04-04T03:33:38.231Z,3.57
2023-04-04T03:36:04.638Z,3.74
2023-04-04T03:38:32.008Z,3.83
2023-04-04T03:40:58.298Z,3.68
2023-04-04T03:43:24.615Z,3.93
2023-04-04T03:45:50.973Z,3.62
2023-04-04T03:48:17.292Z,3.59
2023-04-04T03:50:43.659Z,3.50
2023-04-04T03:53:09.954Z,3.89
2023-04-04T03:55:36.307Z,3.28
2023-04-04T03:58:02.617Z,3.35
2023-04-04T04:00:28.921Z,3.51
2023-04-04T04:02:55.386Z,3.41
2023-04-04T04:05:21.810Z,3.57
2023-04-04T04:07:48.125Z,3.70
2023-04-04T04:10:14.443Z,3.42
2023-04-04T04:12:40.766Z,4.05
2023-04-04T04:15:07.086Z,3.84
2023-04-04T04:17:33.393Z,3.67
2023-04-04T04:19:59.733Z,3.81
2023-04-04T04:22:26.029Z,3.80
2023-04-04T04:24:52.319Z,3.95
2023-04-04T04:27:18.645Z,3.79
2023-04-04T04:29:44.944Z,3.86
2023-04-04T04:32:11.259Z,3.97
2023-04-04T04:34:37.572Z,3.80
2023-04-04T04:37:03.879Z,4.00
2023-04-04T04:39:30.183Z,4.25
2023-04-04T04:41:56.503Z,4.25
2023-04-04T04:44:24.874Z,4.16
2023-04-04T04:46:51.188Z,4.03
2023-04-04T04:49:17.586Z,3.97
2023-04-04T04:51:43.922Z,4.24
2023-04-04T04:54:10.225Z,4.13
2023-04-04T04:56:36.583Z,4.07
2023-04-04T04:59:02.910Z,4.28
2023-04-04T05:01:29.312Z,4.31
2023-04-04T05:03:55.673Z,4.54
2023-04-04T05:06:21.969Z,4.36
2023-04-04T05:08:48.259Z,4.11
2023-04-04T05:11:14.571Z,4.24
2023-04-04T05:13:40.863Z,4.30
2023-04-04T05:16:07.213Z,4.18
2023-04-04T05:18:33.600Z,4.57
2023-04-04T05:20:59.903Z,4.44
2023-04-04T05:23:26.191Z,4.62
2023-04-04T05:25:52.511Z,5.16
2023-04-04T05:28:18.900Z,4.79
2023-04-04T05:30:45.208Z,4.56
2023-04-04T05:33:11.592Z,4.28
2023-04-04T05:35:37.993Z,4.36
2023-04-04T05:38:04.374Z,4.60
2023-04-04T05:40:30.715Z,4.37
2023-04-04T05:42:57.029Z,5.23
2023-04-04T05:45:23.321Z,5.02
2023-04-04T05:47:49.703Z,5.13
2023-04-04T05:50:16.064Z,5.01
2023-04-04T05:52:42.399Z,5.16
2023-04-04T05:55:08.725Z,5.26
2023-04-04T05:57:35.030Z,5.44
2023-04-04T06:00:01.326Z,5.46
2023-04-04T06:02:27.763Z,5.31
2023-04-04T06:04:54.089Z,5.26
2023-04-04T06:07:20.401Z,5.47
2023-04-04T06:09:46.735Z,5.34
2023-04-04T06:12:13.031Z,5.38
2023-04-04T06:14:39.346Z,5.23
2023-04-04T06:17:05.717Z,5.40
2023-04-04T06:19:32.023Z,5.59
2023-04-04T06:21:58.329Z,5.35
2023-04-04T06:24:24.656Z,5.52
2023-04-04T06:26:50.966Z,5.53
2023-04-04T06:29:17.264Z,5.38
2023-04-04T06:31:43.626Z,5.27
2023-04-04T06:34:09.959Z,5.49
2023-04-04T06:36:36.265Z,5.28
2023-04-04T06:39:02.595Z,5.67
2023-04-04T06:41:28.903Z,5.35
2023-04-04T06:43:55.204Z,5.46
2023-04-04T06:46:21.552Z,5.52
2023-04-04T06:48:47.963Z,7.08
2023-04-04T06:51:14.249Z,5.90
2023-04-04T06:53:40.569Z,5.60
2023-04-04T06:56:06.869Z,5.70
2023-04-04T06:58:33.184Z,5.67
2023-04-04T07:00:59.581Z,5.94
2023-04-04T07:03:25.913Z,5.71
2023-04-04T07:05:52.211Z,5.76
2023-04-04T07:08:18.576Z,5.63
2023-04-04T07:10:45.120Z,5.62
2023-04-04T07:13:11.526Z,5.77
2023-04-04T07:15:37.881Z,5.41
2023-04-04T07:18:04.236Z,5.55
2023-04-04T07:20:30.575Z,5.65
2023-04-04T07:22:56.906Z,5.91
2023-04-04T07:25:23.223Z,5.68
2023-04-04T07:27:50.434Z,5.67
2023-04-04T07:30:19.583Z,5.83
2023-04-04T07:32:45.907Z,5.65
2023-04-04T07:35:12.289Z,5.57
2023-04-04T07:37:38.677Z,5.66
2023-04-04T07:40:04.977Z,5.32
2023-04-04T07:42:31.268Z,5.56
2023-04-04T07:44:57.589Z,5.31
2023-04-04T07:47:23.960Z,5.84
2023-04-04T07:49:50.285Z,5.80
2023-04-04T07:52:16.604Z,5.67
2023-04-04T07:54:42.898Z,5.65
2023-04-04T07:57:09.201Z,5.63
2023-04-04T07:59:35.696Z,5.99
2023-04-04T08:02:02.094Z,5.79
2023-04-04T08:04:28.540Z,5.62
2023-04-04T08:06:54.922Z,5.90
2023-04-04T08:09:21.220Z,5.71
2023-04-04T08:11:47.515Z,5.83
2023-04-04T08:14:13.879Z,6.16
2023-04-04T08:16:40.213Z,5.96
2023-04-04T08:19:06.517Z,6.12
2023-04-04T08:21:32.838Z,6.04
2023-04-04T08:23:59.132Z,5.85
2023-04-04T08:26:25.435Z,5.55
2023-04-04T08:28:51.779Z,5.88
2023-04-04T08:31:18.100Z,5.75
2023-04-04T08:33:47.792Z,5.84
2023-04-04T08:36:14.337Z,5.28
2023-04-04T08:38:40.632Z,5.14
2023-04-04T08:41:06.944Z,5.93
2023-04-04T08:43:33.277Z,5.81
2023-04-04T08:45:59.579Z,5.86
2023-04-04T08:48:25.883Z,5.56
2023-04-04T08:50:52.232Z,5.56
2023-04-04T08:53:18.533Z,5.56
2023-04-04T08:55:44.836Z,5.10
2023-04-04T08:58:11.185Z,5.20
2023-04-04T09:00:37.663Z,5.08
2023-04-04T09:03:04.333Z,4.93
2023-04-04T09:05:30.729Z,5.12
2023-04-04T09:07:57.044Z,5.37
2023-04-04T09:10:23.339Z,5.13
2023-04-04T09:12:49.706Z,4.67
2023-04-04T09:15:16.061Z,4.78
2023-04-04T09:17:42.625Z,5.06
2023-04-04T09:20:09.086Z,5.01
2023-04-04T09:22:35.425Z,4.98
2023-04-04T09:25:01.723Z,4.83
2023-04-04T09:27:28.113Z,5.11
2023-04-04T09:29:54.411Z,4.87
2023-04-04T09:32:20.706Z,4.85
2023-04-04T09:34:47.847Z,4.76
2023-04-04T09:37:14.139Z,4.66
2023-04-04T09:39:40.776Z,4.76
2023-04-04T09:42:07.225Z,4.76
2023-04-04T09:44:33.532Z,4.71
2023-04-04T09:46:59.831Z,4.77
2023-04-04T09:49:26.157Z,4.78
2023-04-04T09:51:52.440Z,4.59
2023-04-04T09:54:28.233Z,4.83
2023-04-04T09:56:56.282Z,5.02
2023-04-04T09:59:22.632Z,4.97
2023-04-04T10:01:49.008Z,4.61
2023-04-04T10:04:15.372Z,4.62
2023-04-04T10:06:41.690Z,4.56
2023-04-04T10:09:08.023Z,4.60
2023-04-04T10:11:34.502Z,4.67
2023-04-04T10:14:00.843Z,4.68
2023-04-04T10:16:27.235Z,4.89
2023-04-04T10:18:56.450Z,4.65
2023-04-04T10:21:22.762Z,4.49
2023-04-04T10:23:49.061Z,4.19
2023-04-04T10:26:15.427Z,4.31
2023-04-04T10:28:41.733Z,4.48
2023-04-04T10:31:08.061Z,4.45
2023-04-04T10:33:34.416Z,4.63
2023-04-04T10:36:00.742Z,4.81
2023-04-04T10:38:27.063Z,4.75
2023-04-04T10:40:53.373Z,4.59
2023-04-04T10:43:19.658Z,4.44
2023-04-04T10:45:45.966Z,4.64
2023-04-04T10:48:12.339Z,4.62
2023-04-04T10:50:38.645Z,4.42
2023-04-04T10:53:04.932Z,4.35
2023-04-04T10:55:31.247Z,4.71
2023-04-04T10:57:57.630Z,4.29
2023-04-04T11:00:23.951Z,4.24
2023-04-04T11:02:50.281Z,4.24
2023-04-04T11:05:16.674Z,4.40
2023-04-04T11:07:43.156Z,4.24
2023-04-04T11:10:10.044Z,4.10
2023-04-04T11:12:36.423Z,4.27
2023-04-04T11:15:02.723Z,4.35
2023-04-04T11:17:29.077Z,4.31
2023-04-04T11:19:55.394Z,4.14
2023-04-04T11:22:21.677Z,4.26
2023-04-04T11:24:48.008Z,4.12
2023-04-04T11:27:14.407Z,4.16
2023-04-04T11:29:40.706Z,4.17
2023-04-04T11:32:07.136Z,4.37
2023-04-04T11:34:33.499Z,4.21
2023-04-04T11:36:59.790Z,4.35
2023-04-04T11:39:26.102Z,4.44
2023-04-04T11:41:52.413Z,4.32
2023-04-04T11:44:18.751Z,4.23
2023-04-04T11:46:45.067Z,4.32
2023-04-04T11:49:11.422Z,4.43
2023-04-04T11:51:37.746Z,4.19
2023-04-04T11:54:04.078Z,4.24
2023-04-04T11:56:30.366Z,4.44
2023-04-04T11:59:08.766Z,4.27
2023-04-04T12:01:37.552Z,4.43
2023-04-04T12:04:04.098Z,4.38
2023-04-04T12:06:30.405Z,4.15
2023-04-04T12:08:56.734Z,4.45
2023-04-04T12:11:23.023Z,3.98
2023-04-04T12:13:49.313Z,4.23
2023-04-04T12:16:15.624Z,4.27
2023-04-04T12:18:41.907Z,4.33
2023-04-04T12:21:08.198Z,4.15
2023-04-04T12:23:34.511Z,4.17
2023-04-04T12:26:00.802Z,3.88
2023-04-04T12:28:28.208Z,3.98
2023-04-04T12:30:54.748Z,3.96
2023-04-04T12:33:21.119Z,3.90
2023-04-04T12:35:47.430Z,3.91
2023-04-04T12:38:13.820Z,3.59
2023-04-04T12:40:40.097Z,3.90
2023-04-04T12:43:06.406Z,3.74
2023-04-04T12:45:32.743Z,3.98
2023-04-04T12:47:59.104Z,3.41
2023-04-04T12:50:25.528Z,3.43
2023-04-04T12:52:51.867Z,3.67
2023-04-04T12:55:18.159Z,3.63
2023-04-04T12:57:44.476Z,3.02
2023-04-04T13:00:10.821Z,3.24
2023-04-04T13:02:37.202Z,3.53
2023-04-04T13:05:03.519Z,3.27
2023-04-04T13:07:29.854Z,3.25
2023-04-04T13:09:56.172Z,3.17
2023-04-04T13:12:22.463Z,3.22
2023-04-04T13:14:48.803Z,3.44
2023-04-04T13:17:15.104Z,3.79
2023-04-04T13:19:41.399Z,3.62
2023-04-04T13:22:07.729Z,3.41
2023-04-04T13:24:34.029Z,3.53
2023-04-04T13:27:00.330Z,3.68
2023-04-04T13:29:26.663Z,3.43
2023-04-04T13:31:52.959Z,3.40
2023-04-04T13:34:19.254Z,3.33
2023-04-04T13:36:45.606Z,3.47
2023-04-04T13:39:11.966Z,3.47
2023-04-04T13:41:38.282Z,3.54
2023-04-04T13:44:04.618Z,3.49
2023-04-04T13:46:30.984Z,3.54
2023-04-04T13:48:57.320Z,3.68
2023-04-04T13:51:23.654Z,3.61
2023-04-04T13:53:49.968Z,3.57
2023-04-04T13:56:18.815Z,3.70
2023-04-04T13:58:45.568Z,3.68
2023-04-04T14:01:11.916Z,3.70
2023-04-04T14:03:38.311Z,3.85
2023-04-04T14:06:10.427Z,3.84
2023-04-04T14:08:36.993Z,3.75
2023-04-04T14:11:03.318Z,4.01
2023-04-04T14:13:29.649Z,3.68
2023-04-04T14:15:55.996Z,3.76
2023-04-04T14:18:22.308Z,3.82
2023-04-04T14:20:48.700Z,3.61
2023-04-04T14:23:15.000Z,3.60
2023-04-04T14:25:41.409Z,3.77
2023-04-04T14:28:08.017Z,3.59
2023-04-04T14:30:34.333Z,2.96
2023-04-04T14:33:00.671Z,3.00
2023-04-04T14:35:27.038Z,3.15
2023-04-04T14:37:55.181Z,3.16
2023-04-04T14:40:22.286Z,3.57
2023-04-04T14:42:48.646Z,3.79
2023-04-04T14:45:14.944Z,3.59
2023-04-04T14:47:41.326Z,3.66
2023-04-04T14:50:07.700Z,3.77
2023-04-04T14:52:33.993Z,3.43
2023-04-04T14:55:00.448Z,3.70
2023-04-04T14:57:26.761Z,3.61
2023-04-04T14:59:53.057Z,3.50
2023-04-04T15:02:19.348Z,3.84
2023-04-04T15:04:45.804Z,3.84
2023-04-04T15:07:12.329Z,3.80
2023-04-04T15:09:38.628Z,3.54
2023-04-04T15:12:05.097Z,3.50
2023-04-04T15:14:31.403Z,3.58
2023-04-04T15:16:57.707Z,3.57
2023-04-04T15:19:24.024Z,3.71
2023-04-04T15:21:50.326Z,3.72
2023-04-04T15:24:16.631Z,3.70
2023-04-04T15:26:43.073Z,3.66
2023-04-04T15:29:09.360Z,3.76
2023-04-04T15:31:35.758Z,3.84
2023-04-04T15:34:02.111Z,3.69
2023-04-04T15:36:28.436Z,3.50
2023-04-04T15:38:54.790Z,3.45
2023-04-04T15:41:21.139Z,3.55
2023-04-04T15:43:47.723Z,3.53
2023-04-04T15:46:14.065Z,3.81
2023-04-04T15:48:40.551Z,3.59
2023-04-04T15:51:06.872Z,3.94
2023-04-04T15:53:33.182Z,3.77
2023-04-04T15:55:59.502Z,3.64
2023-04-04T15:58:25.805Z,3.52
2023-04-04T16:00:52.141Z,3.64
2023-04-04T16:03:18.508Z,3.26
2023-04-04T16:05:44.835Z,3.32
2023-04-04T16:08:11.162Z,3.76
2023-04-04T16:10:37.536Z,3.89
2023-04-04T16:13:03.872Z,3.38
2023-04-04T16:15:30.174Z,3.43
2023-04-04T16:17:56.547Z,3.59
2023-04-04T16:20:22.878Z,3.57
2023-04-04T16:22:49.183Z,3.65
2023-04-04T16:25:16.593Z,3.31
2023-04-04T16:27:42.875Z,3.43
2023-04-04T16:30:09.172Z,3.02
2023-04-04T16:32:35.576Z,3.46
2023-04-04T16:35:01.928Z,3.42
2023-04-04T16:37:28.244Z,3.38
2023-04-04T16:39:54.573Z,3.39
2023-04-04T16:42:20.870Z,3.20
2023-04-04T16:44:47.161Z,3.58
2023-04-04T16:47:13.481Z,3.24
2023-04-04T16:49:39.773Z,3.30
2023-04-04T16:52:06.072Z,3.48
2023-04-04T16:54:32.434Z,3.09
2023-04-04T16:56:58.747Z,3.35
2023-04-04T16:59:25.125Z,3.48
2023-04-04T17:01:51.473Z,3.40
2023-04-04T17:04:17.824Z,3.48
2023-04-04T17:06:44.158Z,3.41
2023-04-04T17:09:10.487Z,3.66
2023-04-04T17:11:36.796Z,3.58
2023-04-04T17:14:03.088Z,3.56
2023-04-04T17:16:29.492Z,3.60
2023-04-04T17:18:55.821Z,3.80
2023-04-04T17:21:22.109Z,3.74
2023-04-04T17:23:48.408Z,3.87
2023-04-04T17:26:14.706Z,3.82
2023-04-04T17:28:41.057Z,3.74
2023-04-04T17:31:07.359Z,3.74
2023-04-04T17:33:33.656Z,3.74
2023-04-04T17:35:59.945Z,3.75
2023-04-04T17:38:26.273Z,3.57
2023-04-04T17:40:52.573Z,3.81
2023-04-04T17:43:18.874Z,3.64
2023-04-04T17:45:45.372Z,3.71
2023-04-04T17:48:11.725Z,3.87
2023-04-04T17:50:38.231Z,4.05
2023-04-04T17:53:04.696Z,4.00
2023-04-04T17:55:30.986Z,4.25
2023-04-04T17:57:57.275Z,3.94
2023-04-04T18:00:23.643Z,3.93
2023-04-04T18:02:50.048Z,3.98
2023-04-04T18:05:16.428Z,4.21
2023-04-04T18:07:42.729Z,4.23
2023-04-04T18:10:09.034Z,4.24
2023-04-04T18:12:35.908Z,4.26
2023-04-04T18:15:02.321Z,4.21
2023-04-04T18:17:28.654Z,4.14
2023-04-04T18:19:54.965Z,4.64
2023-04-04T18:22:21.286Z,4.38
2023-04-04T18:24:48.762Z,4.18
2023-04-04T18:27:15.166Z,4.42
2023-04-04T18:29:41.480Z,4.46
2023-04-04T18:32:07.777Z,4.63
2023-04-04T18:34:34.065Z,4.46
2023-04-04T18:37:00.391Z,4.43
2023-04-04T18:39:26.697Z,4.89
2023-04-04T18:41:52.997Z,4.90
2023-04-04T18:44:19.349Z,4.88
2023-04-04T18:46:45.672Z,5.17
2023-04-04T18:49:12.040Z,5.41
2023-04-04T18:51:38.357Z,5.21
2023-04-04T18:54:04.653Z,5.11
2023-04-04T18:56:30.974Z,5.19
2023-04-04T18:58:57.313Z,5.28
2023-04-04T19:01:23.696Z,5.15
2023-04-04T19:03:50.054Z,5.28
2023-04-04T19:06:16.436Z,5.22
2023-04-04T19:08:42.743Z,5.39
2023-04-04T19:11:09.032Z,5.54
2023-04-04T19:13:35.406Z,5.19
2023-04-04T19:16:01.737Z,5.24
2023-04-04T19:18:28.048Z,5.49
2023-04-04T19:20:54.358Z,5.51
2023-04-04T19:23:20.654Z,5.37
2023-04-04T19:25:46.957Z,5.14
2023-04-04T19:28:13.379Z,5.10
2023-04-04T19:30:39.761Z,5.53
2023-04-04T19:33:06.134Z,5.35
2023-04-04T19:35:32.503Z,5.50
2023-04-04T19:37:58.800Z,5.18
2023-04-04T19:40:25.092Z,5.32
2023-04-04T19:42:51.418Z,5.36
2023-04-04T19:45:17.720Z,5.41
2023-04-04T19:47:44.075Z,5.49
2023-04-04T19:50:10.493Z,5.59
2023-04-04T19:52:36.809Z,5.11
2023-04-04T19:55:03.108Z,5.50
2023-04-04T19:57:29.448Z,5.41
2023-04-04T19:59:55.789Z,5.33
2023-04-04T20:02:22.110Z,5.64
2023-04-04T20:04:48.517Z,5.74
2023-04-04T20:07:14.831Z,5.72
2023-04-04T20:09:41.120Z,5.49
2023-04-04T20:12:07.481Z,5.92
2023-04-04T20:14:33.795Z,6.07
2023-04-04T20:17:00.129Z,5.56
2023-04-04T20:19:26.479Z,5.86
2023-04-04T20:21:52.985Z,5.90
2023-04-04T20:24:19.358Z,6.09
2023-04-04T20:26:45.697Z,5.91
2023-04-04T20:29:12.017Z,6.18
2023-04-04T20:31:38.357Z,6.01
2023-04-04T20:34:04.681Z,6.31
2023-04-04T20:36:31.388Z,6.33
2023-04-04T20:38:57.726Z,6.40
2023-04-04T20:41:24.076Z,6.45
2023-04-04T20:43:50.387Z,6.61
2023-04-04T20:46:16.750Z,6.59
2023-04-04T20:48:43.120Z,6.69
2023-04-04T20:51:09.431Z,6.94
2023-04-04T20:53:35.746Z,6.62
2023-04-04T20:56:02.075Z,7.08
2023-04-04T20:58:28.375Z,6.92
2023-04-04T21:00:54.713Z,8.04
2023-04-04T21:03:21.042Z,7.62
2023-04-04T21:05:47.327Z,7.51
2023-04-04T21:08:13.609Z,7.31
2023-04-04T21:10:40.051Z,6.89
2023-04-04T21:13:06.574Z,7.37
2023-04-04T21:15:32.946Z,7.24
2023-04-04T21:17:59.360Z,7.39
2023-04-04T21:20:25.694Z,7.37
2023-04-04T21:22:51.977Z,7.42
2023-04-04T21:25:18.273Z,7.45
2023-04-04T21:27:44.622Z,7.07
2023-04-04T21:30:10.935Z,7.06
2023-04-04T21:32:37.313Z,6.78
2023-04-04T21:35:03.660Z,7.17
2023-04-04T21:37:29.973Z,7.14
2023-04-04T21:39:56.271Z,7.42
2023-04-04T21:42:22.552Z,7.21
2023-04-04T21:44:48.847Z,6.93
2023-04-04T21:47:15.830Z,7.31
2023-04-04T21:49:42.172Z,7.22
2023-04-04T21:52:08.461Z,7.37
2023-04-04T21:54:34.773Z,7.52
2023-04-04T21:57:01.054Z,7.17
2023-04-04T21:59:27.382Z,7.12
2023-04-04T22:01:53.793Z,7.40
2023-04-04T22:04:20.121Z,7.65
2023-04-04T22:06:46.443Z,7.40
2023-04-04T22:09:12.752Z,6.94
2023-04-04T22:11:39.054Z,7.50
2023-04-04T22:14:05.343Z,6.89
2023-04-04T22:16:31.694Z,7.16
2023-04-04T22:18:58.089Z,7.30
2023-04-04T22:21:24.391Z,7.64
2023-04-04T22:23:50.737Z,7.65
2023-04-04T22:26:17.041Z,7.27
2023-04-04T22:28:43.469Z,7.29
2023-04-04T22:31:09.786Z,7.10
2023-04-04T22:33:36.079Z,7.60
2023-04-04T22:36:02.486Z,7.33
2023-04-04T22:38:28.894Z,7.53
2023-04-04T22:40:55.185Z,7.12
2023-04-04T22:43:21.470Z,7.59
2023-04-04T22:45:47.832Z,7.45
2023-04-04T22:48:14.140Z,7.50
2023-04-04T22:50:40.552Z,7.55
2023-04-04T22:53:06.928Z,7.78
2023-04-04T22:55:33.213Z,7.63
2023-04-04T22:57:59.495Z,7.50
2023-04-04T23:00:25.796Z,7.47
2023-04-04T23:02:52.083Z,7.20
2023-04-04T23:05:18.368Z,7.84
2023-04-04T23:07:44.673Z,7.77
2023-04-04T23:10:10.957Z,7.83
2023-04-04T23:12:37.306Z,7.69
2023-04-04T23:15:03.652Z,7.54
2023-04-04T23:17:30.621Z,7.64
2023-04-04T23:19:58.077Z,7.59
2023-04-04T23:22:24.384Z,7.88
2023-04-04T23:24:50.694Z,7.80
2023-04-04T23:27:16.993Z,7.64
2023-04-04T23:29:43.351Z,7.53
2023-04-04T23:32:09.650Z,7.43
2023-04-04T23:34:35.955Z,7.17
2023-04-04T23:37:02.274Z,7.65
2023-04-04T23:39:28.577Z,7.42
2023-04-04T23:41:54.883Z,7.28
2023-04-04T23:44:21.192Z,7.56
2023-04-04T23:46:47.577Z,7.80
2023-04-04T23:49:13.901Z,7.37
2023-04-04T23:51:40.236Z,7.39
2023-04-04T23:54:06.550Z,7.35
2023-04-04T23:56:32.854Z,7.73
2023-04-04T23:58:59.191Z,7.51
